Time;durP1;ratioP1;P1;durP2;ratioP2;P2;SDS_P1;SDS_P2;PMS_P1;PMS_P2;Temp;Humidity;BMP_temperature;BMP_pressure;BME280_temperature;BME280_humidity;BME280_pressure;Samples;Min_cycle;Max_cycle;Signal;HPM_P1;HPM_P2
2022/01/09 05:02:05;;;;;;;1.20;0.40;;;5.40;99.90;;;;;;5225204;23;21053;-69
2022/01/09 05:04:32;;;;;;;0.50;0.50;;;5.20;99.90;;;;;;4979798;28;20474;-70
2022/01/09 05:06:59;;;;;;;0.40;0.40;;;5.20;99.90;;;;;;4980193;28;20758;-69
2022/01/09 05:09:25;;;;;;;0.30;0.30;;;5.20;99.90;;;;;;4979527;28;20440;-69
2022/01/09 05:11:52;;;;;;;0.20;0.20;;;5.00;99.90;;;;;;4979055;28;20479;-69
2022/01/09 05:14:19;;;;;;;0.20;0.20;;;5.00;99.90;;;;;;4978886;28;20451;-70
2022/01/09 05:16:46;;;;;;;0.30;0.30;;;5.00;99.90;;;;;;4979214;28;20459;-69
2022/01/09 05:19:18;;;;;;;0.20;0.20;;;5.00;99.90;;;;;;4978781;28;20968;-69
2022/01/09 05:21:45;;;;;;;0.23;0.23;;;4.90;99.90;;;;;;4978781;28;20838;-70
2022/01/09 05:24:12;;;;;;;0.30;0.30;;;4.80;99.90;;;;;;4978968;28;20962;-70
2022/01/09 05:26:38;;;;;;;0.27;0.27;;;4.80;99.90;;;;;;4978765;28;20459;-70
2022/01/09 05:29:06;;;;;;;0.50;0.30;;;4.70;99.90;;;;;;4978549;28;20467;-69
2022/01/09 05:31:32;;;;;;;0.30;0.20;;;4.60;99.90;;;;;;4978063;28;21005;-70
2022/01/09 05:33:59;;;;;;;0.30;0.30;;;4.50;99.90;;;;;;4977898;28;20459;-69
2022/01/09 05:36:27;;;;;;;0.50;0.23;;;4.40;99.90;;;;;;4978489;28;20466;-69
2022/01/09 05:38:54;;;;;;;0.30;0.30;;;4.30;99.90;;;;;;4978805;28;20455;-69
2022/01/09 05:41:21;;;;;;;0.30;0.30;;;4.30;99.90;;;;;;4978065;28;20475;-69
2022/01/09 05:43:48;;;;;;;0.20;0.20;;;4.30;99.90;;;;;;4978396;28;20462;-69
2022/01/09 05:46:14;;;;;;;0.33;0.33;;;4.20;99.90;;;;;;4978449;28;20455;-69
2022/01/09 05:48:41;;;;;;;0.23;0.23;;;4.20;99.90;;;;;;4978130;28;20455;-68
2022/01/09 05:51:08;;;;;;;0.30;0.30;;;4.20;99.90;;;;;;4978352;28;20483;-68
2022/01/09 05:53:36;;;;;;;0.83;0.40;;;4.30;99.90;;;;;;4978408;28;20474;-68
2022/01/09 05:56:03;;;;;;;0.80;0.40;;;4.30;99.90;;;;;;4978228;28;20455;-69
2022/01/09 05:58:29;;;;;;;1.53;0.60;;;4.30;99.90;;;;;;4977843;28;20451;-69
2022/01/09 06:00:56;;;;;;;0.57;0.57;;;4.20;99.90;;;;;;4977858;28;20486;-68
2022/01/09 06:03:23;;;;;;;1.07;0.83;;;4.20;99.90;;;;;;4978464;28;20535;-70
2022/01/09 06:05:51;;;;;;;1.80;1.03;;;4.20;99.90;;;;;;4977863;28;20464;-68
2022/01/09 06:08:18;;;;;;;2.00;0.60;;;4.30;99.90;;;;;;4978620;28;20482;-69
2022/01/09 06:10:46;;;;;;;2.10;1.10;;;4.30;99.90;;;;;;4977740;28;21029;-68
2022/01/09 06:13:13;;;;;;;5.07;0.83;;;4.30;99.90;;;;;;4978026;28;20972;-69
2022/01/09 06:15:40;;;;;;;2.70;1.10;;;4.40;99.90;;;;;;4978580;28;20451;-70
2022/01/09 06:18:06;;;;;;;5.40;1.00;;;4.40;99.90;;;;;;4980460;28;20455;-70
2022/01/09 06:20:33;;;;;;;4.73;1.10;;;4.40;99.90;;;;;;4981117;28;20893;-69
2022/01/09 06:23:00;;;;;;;1.97;1.13;;;4.40;99.90;;;;;;4982082;28;20455;-69
2022/01/09 06:25:27;;;;;;;7.23;1.80;;;4.40;99.90;;;;;;4984857;28;20470;-68
2022/01/09 06:27:55;;;;;;;3.70;0.80;;;4.40;99.90;;;;;;4981528;28;20807;-69
2022/01/09 06:30:22;;;;;;;4.10;0.90;;;4.40;99.90;;;;;;4981374;28;20475;-69
2022/01/09 06:32:48;;;;;;;0.63;0.63;;;4.50;99.90;;;;;;4982298;28;20466;-69
2022/01/09 06:35:15;;;;;;;2.20;1.00;;;4.50;99.90;;;;;;4980416;28;20462;-69
2022/01/09 06:37:42;;;;;;;1.53;0.60;;;4.50;99.90;;;;;;4980612;28;20922;-69
2022/01/09 06:40:10;;;;;;;1.43;0.80;;;4.50;99.90;;;;;;4980718;28;20939;-69
2022/01/09 06:42:38;;;;;;;2.63;1.03;;;4.60;99.90;;;;;;4979898;28;20455;-69
2022/01/09 06:45:07;;;;;;;0.73;0.73;;;4.60;99.90;;;;;;4976660;28;20458;-69
2022/01/09 06:47:33;;;;;;;0.80;0.80;;;4.60;99.90;;;;;;4977608;28;20455;-70
2022/01/09 06:50:00;;;;;;;2.40;0.80;;;4.60;99.90;;;;;;4978352;28;20466;-69
2022/01/09 06:52:27;;;;;;;1.27;0.70;;;4.60;99.90;;;;;;4976993;28;20476;-69
2022/01/09 06:54:54;;;;;;;1.53;0.60;;;4.60;99.90;;;;;;4977265;28;20459;-69
2022/01/09 06:57:20;;;;;;;1.63;1.10;;;4.60;99.90;;;;;;4977591;28;20455;-69
2022/01/09 06:59:47;;;;;;;0.67;0.60;;;4.60;99.90;;;;;;4977384;28;20463;-69
2022/01/09 07:02:15;;;;;;;3.23;0.80;;;4.60;99.90;;;;;;4977072;28;20483;-69
2022/01/09 07:04:42;;;;;;;1.13;1.03;;;4.60;99.90;;;;;;4977211;28;20515;-69
2022/01/09 07:07:08;;;;;;;1.47;0.80;;;4.60;99.90;;;;;;4977097;28;20459;-68
2022/01/09 07:09:35;;;;;;;1.20;0.80;;;4.60;99.90;;;;;;4976799;28;20455;-69
2022/01/09 07:12:02;;;;;;;2.23;0.83;;;4.50;99.90;;;;;;4976054;28;21001;-69
2022/01/09 07:14:29;;;;;;;4.40;1.47;;;4.60;99.90;;;;;;4976824;28;20461;-69
2022/01/09 07:16:55;;;;;;;1.67;1.00;;;4.60;99.90;;;;;;4977197;28;20455;-68
2022/01/09 07:19:23;;;;;;;4.10;1.83;;;4.60;99.90;;;;;;4976763;28;20821;-69
2022/01/09 07:21:50;;;;;;;4.53;1.90;;;4.50;99.90;;;;;;4976658;28;20571;-69
2022/01/09 07:24:17;;;;;;;5.73;1.50;;;4.60;99.90;;;;;;4976510;28;20455;-68
2022/01/09 07:26:44;;;;;;;4.20;1.70;;;4.60;99.90;;;;;;4977342;28;20463;-69
2022/01/09 07:29:10;;;;;;;5.27;1.83;;;4.60;99.90;;;;;;4976974;28;20512;-68
2022/01/09 07:31:37;;;;;;;4.43;1.73;;;4.60;99.90;;;;;;4976432;28;20490;-69
2022/01/09 07:34:04;;;;;;;6.50;2.10;;;4.60;99.90;;;;;;4976888;28;20470;-69
2022/01/09 07:36:32;;;;;;;6.03;1.63;;;4.60;99.90;;;;;;4976581;28;20455;-69
2022/01/09 07:38:59;;;;;;;5.00;1.80;;;4.60;99.90;;;;;;4976472;28;20446;-68
2022/01/09 07:41:25;;;;;;;3.67;1.83;;;4.60;99.90;;;;;;4976541;28;20472;-68
2022/01/09 07:43:52;;;;;;;7.70;1.47;;;4.50;99.90;;;;;;4976967;28;20462;-68
2022/01/09 07:46:19;;;;;;;2.40;1.40;;;4.50;99.90;;;;;;4976266;28;20470;-67
2022/01/09 07:48:46;;;;;;;4.30;1.50;;;4.50;99.90;;;;;;4977583;28;20461;-68
2022/01/09 07:51:13;;;;;;;3.67;1.30;;;4.50;99.90;;;;;;4979931;28;20486;-69
2022/01/09 07:53:41;;;;;;;1.80;1.40;;;4.50;99.90;;;;;;4980260;28;20559;-69
2022/01/09 07:56:07;;;;;;;5.10;1.10;;;4.50;99.90;;;;;;4984346;28;20459;-68
2022/01/09 07:58:34;;;;;;;3.23;1.70;;;4.40;99.90;;;;;;4979443;28;20458;-68
2022/01/09 08:01:01;;;;;;;4.20;2.10;;;4.40;99.90;;;;;;4977395;28;20483;-68
2022/01/09 08:03:27;;;;;;;3.83;0.93;;;4.40;99.90;;;;;;4977340;28;20513;-69
2022/01/09 08:05:54;;;;;;;4.23;1.93;;;4.40;99.90;;;;;;4977069;28;20459;-68
2022/01/09 08:08:21;;;;;;;2.77;1.33;;;4.50;99.90;;;;;;4976746;28;20466;-69
2022/01/09 08:10:49;;;;;;;3.97;1.40;;;4.50;99.90;;;;;;4976401;28;20479;-70
2022/01/09 08:13:16;;;;;;;4.00;1.30;;;4.60;99.90;;;;;;4977337;28;20477;-69
2022/01/09 08:15:43;;;;;;;4.97;2.70;;;4.60;99.90;;;;;;4977753;28;20943;-69
2022/01/09 08:18:10;;;;;;;3.57;1.37;;;4.60;99.90;;;;;;4976748;28;20454;-68
2022/01/09 08:20:37;;;;;;;6.63;1.30;;;4.50;99.90;;;;;;4977721;28;20475;-68
2022/01/09 08:23:04;;;;;;;1.70;1.20;;;4.60;99.90;;;;;;4977200;28;20459;-69
2022/01/09 08:25:31;;;;;;;7.17;1.90;;;4.60;99.90;;;;;;4976791;28;20459;-68
2022/01/09 08:28:00;;;;;;;10.63;1.80;;;4.70;99.90;;;;;;4976263;28;20514;-69
2022/01/09 08:30:26;;;;;;;6.53;1.13;;;4.70;99.90;;;;;;4976629;28;20458;-68
2022/01/09 08:32:53;;;;;;;7.03;2.20;;;4.80;99.90;;;;;;4979480;28;20462;-67
2022/01/09 08:35:21;;;;;;;2.40;1.13;;;4.80;99.90;;;;;;4979198;28;20458;-67
2022/01/09 08:37:53;;;;;;;8.30;2.40;;;4.80;99.90;;;;;;4980131;28;20451;-68
2022/01/09 08:40:24;;;;;;;6.10;2.10;;;4.80;99.90;;;;;;4980370;28;20866;-67
2022/01/09 08:42:53;;;;;;;4.87;1.57;;;4.90;99.90;;;;;;4977148;28;20451;-66
2022/01/09 08:45:22;;;;;;;4.10;1.60;;;5.00;99.90;;;;;;4976470;28;20946;-66
2022/01/09 08:47:49;;;;;;;4.30;1.20;;;5.10;99.90;;;;;;4977751;28;20542;-67
2022/01/09 08:50:17;;;;;;;4.37;1.93;;;5.20;99.90;;;;;;4976066;28;20490;-67
2022/01/09 08:52:44;;;;;;;7.30;1.63;;;5.40;99.90;;;;;;4976184;28;20549;-67
2022/01/09 08:55:13;;;;;;;9.63;1.60;;;5.60;99.90;;;;;;4976481;28;20466;-66
2022/01/09 08:57:40;;;;;;;5.27;1.60;;;5.80;99.90;;;;;;4976964;28;20494;-66
2022/01/09 09:00:08;;;;;;;8.30;3.00;;;6.00;99.90;;;;;;4976011;28;20820;-66
2022/01/09 09:02:37;;;;;;;4.90;1.70;;;6.10;99.90;;;;;;4976548;28;20478;-66
2022/01/09 09:05:05;;;;;;;2.57;1.73;;;6.20;99.90;;;;;;4976346;28;20458;-66
2022/01/09 09:07:32;;;;;;;5.93;1.37;;;6.40;99.90;;;;;;4977520;28;20820;-67
2022/01/09 09:10:03;;;;;;;6.10;1.50;;;6.60;99.90;;;;;;4979705;28;20969;-67
2022/01/09 09:12:31;;;;;;;4.23;1.20;;;6.70;99.90;;;;;;4979580;28;20482;-67
2022/01/09 09:14:58;;;;;;;5.90;1.23;;;6.80;99.90;;;;;;4980972;28;20459;-66
2022/01/09 09:17:25;;;;;;;2.40;1.20;;;6.90;99.90;;;;;;4985752;28;20466;-67
2022/01/09 09:19:53;;;;;;;4.93;1.60;;;6.80;99.90;;;;;;4979914;28;20542;-68
2022/01/09 09:22:20;;;;;;;6.30;1.53;;;6.60;99.90;;;;;;4979485;28;20485;-67
2022/01/09 09:24:47;;;;;;;7.50;2.00;;;6.60;99.90;;;;;;4981612;28;20945;-68
2022/01/09 09:27:14;;;;;;;4.60;1.47;;;6.40;99.90;;;;;;4982542;28;20951;-68
2022/01/09 09:29:41;;;;;;;6.80;1.70;;;6.30;99.90;;;;;;4987758;28;20487;-69
2022/01/09 09:32:08;;;;;;;3.30;1.50;;;6.30;99.90;;;;;;4980387;28;20487;-69
2022/01/09 09:34:35;;;;;;;4.40;1.47;;;6.20;99.90;;;;;;4979801;28;20968;-68
2022/01/09 09:37:03;;;;;;;4.23;1.27;;;6.10;99.90;;;;;;4979242;28;20439;-68
2022/01/09 09:39:30;;;;;;;1.40;1.30;;;6.10;99.90;;;;;;4978679;28;20466;-68
2022/01/09 09:41:57;;;;;;;2.93;1.70;;;6.00;99.90;;;;;;4979783;28;20474;-69
2022/01/09 09:44:23;;;;;;;5.00;1.93;;;6.10;99.90;;;;;;4979743;28;20463;-70
2022/01/09 09:46:53;;;;;;;3.73;1.50;;;6.20;99.90;;;;;;4980243;28;20457;-69
2022/01/09 09:49:22;;;;;;;3.70;1.10;;;6.30;99.90;;;;;;4980282;28;20450;-70
2022/01/09 09:51:49;;;;;;;2.97;0.93;;;6.30;99.90;;;;;;4981309;28;20562;-68
2022/01/09 09:54:17;;;;;;;4.57;1.60;;;6.50;99.90;;;;;;4980847;28;20949;-68
2022/01/09 09:56:44;;;;;;;4.83;1.47;;;6.60;99.90;;;;;;4982854;28;20455;-68
2022/01/09 09:59:10;;;;;;;7.73;1.40;;;6.80;99.90;;;;;;4982455;28;20558;-67
2022/01/09 10:01:38;;;;;;;4.60;1.87;;;6.90;99.90;;;;;;4980579;28;20482;-68
2022/01/09 10:04:07;;;;;;;5.63;1.87;;;6.90;99.90;;;;;;4981554;28;20911;-68
2022/01/09 10:06:39;;;;;;;3.73;1.77;;;7.00;99.90;;;;;;4983409;28;20459;-68
2022/01/09 10:09:08;;;;;;;5.27;1.73;;;7.10;99.90;;;;;;4981793;28;20443;-68
2022/01/09 10:11:48;;;;;;;7.33;2.37;;;7.30;99.90;;;;;;4979853;28;20483;-67
2022/01/09 10:14:17;;;;;;;3.90;1.50;;;7.30;99.90;;;;;;4983548;28;20854;-67
2022/01/09 10:17:08;;;;;;;2.07;1.60;;;7.10;99.90;;;;;;4984852;28;20939;-67
2022/01/09 10:19:47;;;;;;;4.80;1.90;;;7.10;99.90;;;;;;4985063;28;20887;-69
2022/01/09 10:22:36;;;;;;;3.33;1.50;;;7.10;99.90;;;;;;4984199;28;20475;-68
2022/01/09 10:25:22;;;;;;;5.40;1.63;;;7.30;99.90;;;;;;4989993;28;20440;-69
2022/01/09 10:27:55;;;;;;;5.17;1.97;;;7.40;99.90;;;;;;4983015;28;20866;-69
2022/01/09 10:30:23;;;;;;;1.47;1.17;;;7.90;99.90;;;;;;4978353;28;20444;-68
2022/01/09 10:32:55;;;;;;;5.13;1.53;;;8.30;99.90;;;;;;4984587;28;20475;-67
2022/01/09 10:35:23;;;;;;;4.63;1.57;;;8.20;99.90;;;;;;4984730;28;20440;-69
2022/01/09 10:38:03;;;;;;;6.30;1.40;;;8.20;99.90;;;;;;4984789;28;20459;-70
2022/01/09 10:40:32;;;;;;;1.93;1.40;;;8.00;99.90;;;;;;4981920;28;20454;-69
2022/01/09 10:43:06;;;;;;;3.30;1.30;;;7.70;99.90;;;;;;4980977;28;20458;-70
2022/01/09 10:45:34;;;;;;;4.77;1.60;;;7.70;99.90;;;;;;4981338;28;20455;-70
2022/01/09 10:48:06;;;;;;;3.80;1.67;;;7.50;99.90;;;;;;4982391;28;20465;-70
2022/01/09 10:50:35;;;;;;;4.00;1.83;;;7.50;99.90;;;;;;4980965;28;20477;-70
2022/01/09 10:53:20;;;;;;;1.37;1.10;;;7.70;99.90;;;;;;4981824;28;20494;-70
2022/01/09 10:55:49;;;;;;;2.67;0.90;;;7.80;99.90;;;;;;4981928;28;20444;-69
2022/01/09 10:58:24;;;;;;;2.30;1.87;;;8.00;99.90;;;;;;4979225;28;20876;-69
2022/01/09 11:01:09;;;;;;;1.70;1.10;;;8.10;99.90;;;;;;4988032;28;20490;-69
2022/01/09 11:03:37;;;;;;;2.53;1.47;;;8.20;99.90;;;;;;4978216;28;20436;-69
2022/01/09 11:06:04;;;;;;;4.23;1.13;;;8.20;99.90;;;;;;4978124;28;20478;-70
2022/01/09 11:08:32;;;;;;;1.60;1.10;;;8.10;99.90;;;;;;4979046;28;20462;-69
2022/01/09 11:10:59;;;;;;;3.00;1.10;;;8.10;99.90;;;;;;4980396;28;20493;-69
2022/01/09 11:13:28;;;;;;;3.40;0.70;;;8.10;99.90;;;;;;4978554;28;20475;-69
2022/01/09 11:18:43;;;;;;;1.43;1.00;;;8.00;99.90;;;;;;4980279;28;20490;-73
2022/01/09 11:21:10;;;;;;;1.40;1.10;;;7.80;99.90;;;;;;4979075;28;20499;-70
2022/01/09 11:23:50;;;;;;;4.40;1.30;;;7.60;99.90;;;;;;4977560;28;20470;-69
2022/01/09 11:26:17;;;;;;;4.17;1.53;;;7.50;99.90;;;;;;4977033;28;20443;-68
2022/01/09 11:28:50;;;;;;;1.90;1.43;;;7.20;99.90;;;;;;4977971;28;20455;-68
2022/01/09 11:31:28;;;;;;;3.03;1.57;;;7.30;99.90;;;;;;4977191;28;20497;-69
2022/01/09 11:34:08;;;;;;;3.60;1.33;;;6.90;99.90;;;;;;4976969;28;20435;-69
2022/01/09 11:36:42;;;;;;;3.93;1.37;;;7.00;99.90;;;;;;4976988;28;20450;-69
2022/01/09 11:39:16;;;;;;;2.80;1.30;;;7.10;99.90;;;;;;4977668;28;20447;-69
2022/01/09 11:41:44;;;;;;;2.27;1.20;;;7.00;99.90;;;;;;4976979;28;20479;-69
2022/01/09 11:44:15;;;;;;;3.10;1.33;;;6.90;99.90;;;;;;4976255;28;20455;-69
2022/01/09 11:47:00;;;;;;;2.97;1.27;;;6.80;99.90;;;;;;4977242;28;20443;-68
2022/01/09 11:49:28;;;;;;;4.27;1.07;;;6.90;99.90;;;;;;4979878;28;20466;-68
2022/01/09 11:51:56;;;;;;;3.67;1.43;;;7.00;99.90;;;;;;4978008;28;20491;-68
2022/01/09 11:54:23;;;;;;;5.17;1.50;;;7.00;99.90;;;;;;4979638;28;20459;-68
2022/01/09 11:57:00;;;;;;;3.87;1.70;;;7.00;99.90;;;;;;4976817;28;20475;-69
2022/01/09 11:59:30;;;;;;;4.00;2.10;;;7.10;99.90;;;;;;4977757;28;20443;-69
2022/01/09 12:02:00;;;;;;;5.50;1.60;;;7.10;99.90;;;;;;4978144;28;20486;-69
2022/01/09 12:04:53;;;;;;;6.00;1.30;;;7.10;99.90;;;;;;4979951;28;20458;-69
2022/01/09 12:07:35;;;;;;;2.30;1.20;;;7.00;99.90;;;;;;4981316;28;20478;-69
2022/01/09 12:10:04;;;;;;;3.37;1.43;;;6.90;99.90;;;;;;4981352;28;20459;-68
2022/01/09 12:12:36;;;;;;;3.10;1.60;;;6.80;99.90;;;;;;4981770;28;20475;-69
2022/01/09 12:15:05;;;;;;;4.23;1.60;;;6.80;99.90;;;;;;4981825;28;20929;-67
2022/01/09 12:17:40;;;;;;;5.67;1.53;;;6.80;99.90;;;;;;4982334;28;20451;-68
2022/01/09 12:20:11;;;;;;;5.17;1.53;;;6.80;99.90;;;;;;4981278;28;20462;-68
2022/01/09 12:23:05;;;;;;;3.03;1.33;;;6.80;99.90;;;;;;4981216;28;20499;-68
2022/01/09 12:25:52;;;;;;;4.73;1.43;;;6.80;99.90;;;;;;4980350;28;20462;-68
2022/01/09 12:28:35;;;;;;;3.83;1.80;;;6.60;99.90;;;;;;4979279;28;20450;-67
2022/01/09 12:31:03;;;;;;;4.07;1.50;;;6.50;99.90;;;;;;4980594;28;20897;-68
2022/01/09 12:33:51;;;;;;;5.03;1.93;;;6.40;99.90;;;;;;4984701;28;20478;-67
2022/01/09 12:36:31;;;;;;;4.17;2.03;;;6.20;99.90;;;;;;4979257;28;20534;-67
2022/01/09 12:39:02;;;;;;;5.03;1.80;;;6.20;99.90;;;;;;4980921;28;20523;-68
2022/01/09 12:41:32;;;;;;;4.60;2.07;;;6.20;99.90;;;;;;4979634;28;21011;-68
2022/01/09 12:44:06;;;;;;;4.93;2.00;;;6.20;99.90;;;;;;4980283;28;20450;-68
2022/01/09 12:46:36;;;;;;;4.40;2.23;;;6.30;99.90;;;;;;4982540;28;20440;-68
2022/01/09 12:49:05;;;;;;;5.43;2.00;;;6.30;99.90;;;;;;4982106;28;20439;-69
2022/01/09 12:51:32;;;;;;;4.33;2.10;;;6.40;99.90;;;;;;4981705;28;20475;-69
2022/01/09 12:54:02;;;;;;;3.87;1.67;;;6.40;99.90;;;;;;4980813;28;20482;-69
2022/01/09 12:56:30;;;;;;;2.50;1.90;;;6.50;99.90;;;;;;4981566;28;20455;-68
2022/01/09 12:59:00;;;;;;;4.87;1.63;;;6.50;99.90;;;;;;4981238;28;20455;-66
2022/01/09 13:01:27;;;;;;;4.17;2.00;;;6.50;99.90;;;;;;4980161;28;20591;-68
2022/01/09 13:03:57;;;;;;;5.83;2.17;;;6.50;99.90;;;;;;4981212;28;20462;-67
2022/01/09 13:06:26;;;;;;;4.07;1.63;;;6.40;99.90;;;;;;4980846;28;20455;-68
2022/01/09 13:08:55;;;;;;;1.03;0.93;;;6.20;99.90;;;;;;4980489;28;20462;-67
2022/01/09 13:11:24;;;;;;;7.27;1.30;;;6.10;99.90;;;;;;4982245;28;20482;-67
2022/01/09 13:13:52;;;;;;;2.70;1.23;;;6.00;99.90;;;;;;4980959;28;20498;-67
2022/01/09 13:16:27;;;;;;;3.87;1.53;;;5.90;99.90;;;;;;4983317;28;20946;-67
2022/01/09 13:19:00;;;;;;;3.10;1.30;;;5.80;99.90;;;;;;4984616;28;21042;-67
2022/01/09 13:21:28;;;;;;;3.70;1.70;;;5.80;99.90;;;;;;4985042;28;20479;-69
2022/01/09 13:24:01;;;;;;;6.93;1.20;;;5.80;99.90;;;;;;4982246;28;20451;-68
2022/01/09 13:26:31;;;;;;;4.70;1.60;;;5.90;99.90;;;;;;4984317;28;20439;-68
2022/01/09 13:29:00;;;;;;;8.47;1.90;;;5.90;99.90;;;;;;4985091;28;20454;-68
2022/01/09 13:31:34;;;;;;;5.60;1.80;;;5.90;99.90;;;;;;4984010;28;20483;-68
2022/01/09 13:34:05;;;;;;;3.23;1.80;;;5.90;99.90;;;;;;4985991;28;20466;-69
2022/01/09 13:36:36;;;;;;;3.60;1.53;;;6.00;99.90;;;;;;4988602;28;20450;-68
2022/01/09 13:39:06;;;;;;;2.10;1.23;;;6.00;99.90;;;;;;4985667;28;20511;-68
2022/01/09 13:41:40;;;;;;;4.93;1.50;;;6.00;99.90;;;;;;4986886;28;20490;-69
2022/01/09 13:47:01;;;;;;;7.50;2.50;;;6.20;99.90;;;;;;4982951;28;20455;-68
2022/01/09 13:49:30;;;;;;;6.93;2.80;;;6.20;99.90;;;;;;4988065;28;20451;-67
2022/01/09 13:51:57;;;;;;;4.67;1.87;;;6.30;99.90;;;;;;4987518;28;20481;-67
2022/01/09 13:54:27;;;;;;;6.60;1.70;;;6.30;99.90;;;;;;4983549;28;20799;-68
2022/01/09 13:57:07;;;;;;;6.23;2.20;;;6.30;99.90;;;;;;4985668;28;20882;-67
2022/01/09 14:00:03;;;;;;;;;;;;;;;;;;;;;
2022/01/09 14:02:50;;;;;;;9.37;1.87;;;6.30;99.90;;;;;;4983918;28;20483;-67
2022/01/09 14:05:20;;;;;;;4.63;2.20;;;6.30;99.90;;;;;;4991277;28;20523;-68
2022/01/09 14:07:48;;;;;;;6.13;1.87;;;6.20;99.90;;;;;;4986904;28;20435;-67
2022/01/09 14:10:15;;;;;;;3.40;1.80;;;6.20;99.90;;;;;;4983636;28;20527;-67
2022/01/09 14:12:44;;;;;;;7.30;2.10;;;6.20;99.90;;;;;;4982572;28;20482;-67
2022/01/09 14:15:12;;;;;;;4.93;2.20;;;6.20;99.90;;;;;;4982755;28;20534;-67
2022/01/09 14:17:44;;;;;;;4.77;1.63;;;6.30;99.90;;;;;;4983756;28;20466;-67
2022/01/09 14:20:17;;;;;;;2.97;1.20;;;6.10;99.90;;;;;;4984510;28;20460;-67
2022/01/09 14:23:10;;;;;;;7.10;2.73;;;6.20;99.90;;;;;;4984398;28;20522;-69
2022/01/09 14:25:39;;;;;;;9.03;2.30;;;6.30;99.90;;;;;;4981633;28;20454;-67
2022/01/09 14:28:09;;;;;;;3.53;1.80;;;6.30;99.90;;;;;;4981061;28;20541;-69
2022/01/09 14:30:42;;;;;;;5.07;1.60;;;6.40;99.90;;;;;;4982061;28;20475;-67
2022/01/09 14:33:19;;;;;;;8.77;1.97;;;6.40;99.90;;;;;;4984845;28;20545;-68
2022/01/09 14:35:49;;;;;;;3.23;1.60;;;6.50;99.90;;;;;;4986536;28;20427;-68
2022/01/09 14:38:19;;;;;;;3.37;1.40;;;6.50;99.90;;;;;;4986136;28;20455;-67
2022/01/09 14:40:48;;;;;;;4.90;2.53;;;6.60;99.90;;;;;;4981893;28;20479;-68
2022/01/09 14:43:15;;;;;;;3.37;1.97;;;6.70;99.90;;;;;;4980924;28;20452;-67
2022/01/09 14:45:42;;;;;;;3.80;1.97;;;7.00;99.90;;;;;;4980995;28;20460;-67
2022/01/09 14:48:09;;;;;;;5.10;1.47;;;7.40;99.90;;;;;;4981759;28;20467;-67
2022/01/09 14:50:36;;;;;;;5.17;1.80;;;7.50;99.90;;;;;;4978668;28;20566;-67
2022/01/09 14:53:04;;;;;;;3.40;1.70;;;7.60;99.90;;;;;;4978678;28;20479;-68
2022/01/09 14:55:32;;;;;;;3.17;1.27;;;7.70;99.90;;;;;;4979290;28;20455;-67
2022/01/09 14:57:59;;;;;;;6.87;1.93;;;7.90;99.90;;;;;;4979782;28;20455;-67
2022/01/09 15:00:26;;;;;;;1.10;1.00;;;7.80;99.90;;;;;;4979000;28;20455;-68
2022/01/09 15:02:53;;;;;;;0.80;0.80;;;7.70;99.90;;;;;;4980588;28;20459;-69
2022/01/09 15:05:19;;;;;;;4.20;0.90;;;7.40;99.90;;;;;;4978814;28;20458;-68
2022/01/09 15:07:46;;;;;;;3.50;1.00;;;7.00;99.90;;;;;;4978732;28;20490;-67
2022/01/09 15:10:13;;;;;;;1.00;0.80;;;6.80;99.90;;;;;;4978495;28;20455;-68
2022/01/09 15:12:41;;;;;;;2.10;1.03;;;6.60;99.90;;;;;;4976929;28;20836;-68
2022/01/09 15:15:09;;;;;;;1.83;0.63;;;6.40;99.90;;;;;;4977503;28;20462;-67
2022/01/09 15:17:36;;;;;;;1.47;1.07;;;6.20;99.90;;;;;;4976972;28;20965;-68
2022/01/09 15:20:03;;;;;;;1.27;0.67;;;6.10;99.90;;;;;;4977714;28;20459;-67
2022/01/09 15:22:31;;;;;;;2.77;0.97;;;5.80;99.90;;;;;;4977641;28;20982;-68
2022/01/09 15:24:58;;;;;;;2.80;0.90;;;5.80;99.90;;;;;;4977778;28;20522;-68
2022/01/09 15:27:25;;;;;;;2.10;0.73;;;5.70;99.90;;;;;;4977434;28;20461;-69
2022/01/09 15:29:53;;;;;;;1.87;1.13;;;5.60;99.90;;;;;;4977646;28;20463;-69
2022/01/09 15:32:20;;;;;;;1.80;0.80;;;5.50;99.90;;;;;;4977582;28;20482;-69
2022/01/09 15:34:47;;;;;;;3.07;1.30;;;5.30;99.90;;;;;;4980484;28;20485;-69
2022/01/09 15:37:13;;;;;;;1.23;0.73;;;5.30;99.90;;;;;;4989492;28;20455;-68
2022/01/09 15:39:41;;;;;;;2.20;1.57;;;5.20;99.90;;;;;;4992641;28;20424;-67
2022/01/09 15:42:07;;;;;;;1.27;1.20;;;4.80;99.90;;;;;;4985640;28;20555;-68
2022/01/09 15:44:34;;;;;;;2.77;2.50;;;4.80;99.90;;;;;;4977793;28;20450;-68
2022/01/09 15:47:02;;;;;;;2.90;2.70;;;4.80;99.90;;;;;;4980161;28;20455;-67
2022/01/09 15:49:29;;;;;;;3.90;1.40;;;4.80;99.90;;;;;;4981991;28;20470;-68
2022/01/09 15:51:56;;;;;;;3.57;1.70;;;4.80;99.90;;;;;;4978283;28;20488;-68
2022/01/09 15:54:23;;;;;;;2.37;1.47;;;4.80;99.90;;;;;;4981444;28;20470;-70
2022/01/09 15:56:50;;;;;;;2.33;1.63;;;4.80;99.90;;;;;;4980300;28;20459;-69
2022/01/09 15:59:17;;;;;;;2.73;1.67;;;5.10;99.90;;;;;;4978660;28;20443;-68
2022/01/09 16:01:44;;;;;;;3.03;1.93;;;5.20;99.90;;;;;;4977727;28;20566;-67
2022/01/09 16:04:16;;;;;;;4.67;2.17;;;5.30;99.90;;;;;;4977064;28;20451;-68
2022/01/09 16:06:46;;;;;;;2.77;2.20;;;5.30;99.90;;;;;;4978638;28;20432;-69
2022/01/09 16:09:13;;;;;;;3.40;1.60;;;5.30;99.90;;;;;;4981805;28;20960;-69
2022/01/09 16:11:40;;;;;;;6.63;2.53;;;5.50;99.90;;;;;;4978440;28;20467;-68
2022/01/09 16:14:07;;;;;;;3.60;2.33;;;5.60;99.90;;;;;;4978378;28;20486;-67
2022/01/09 16:16:35;;;;;;;4.30;1.90;;;5.80;99.90;;;;;;4978690;28;20478;-67
2022/01/09 16:19:02;;;;;;;2.40;1.77;;;5.90;99.90;;;;;;4980237;28;20466;-67
2022/01/09 16:21:30;;;;;;;4.03;1.53;;;5.80;99.90;;;;;;4980465;28;20487;-67
2022/01/09 16:23:57;;;;;;;7.90;1.70;;;5.70;99.90;;;;;;4980439;28;20447;-67
2022/01/09 16:26:24;;;;;;;10.47;2.23;;;5.60;99.90;;;;;;4980318;28;20486;-67
2022/01/09 16:28:52;;;;;;;7.07;1.73;;;5.40;99.90;;;;;;4985737;28;20466;-67
2022/01/09 16:31:20;;;;;;;3.27;2.00;;;5.30;99.90;;;;;;4996497;28;20475;-67
2022/01/09 16:33:47;;;;;;;4.80;1.97;;;5.20;99.90;;;;;;4997598;28;20475;-68
2022/01/09 16:36:15;;;;;;;2.17;2.03;;;5.10;99.90;;;;;;4985557;28;20458;-68
2022/01/09 16:38:43;;;;;;;2.77;2.53;;;5.00;99.90;;;;;;4983483;28;20455;-67
2022/01/09 16:41:11;;;;;;;8.90;5.43;;;4.90;99.90;;;;;;4981525;28;20475;-68
2022/01/09 16:43:39;;;;;;;8.73;4.37;;;4.80;99.90;;;;;;4980791;28;20550;-68
2022/01/09 16:46:07;;;;;;;6.53;4.60;;;4.80;99.90;;;;;;4979539;28;20936;-67
2022/01/09 16:48:36;;;;;;;4.00;3.20;;;4.70;99.90;;;;;;4979711;28;20550;-68
2022/01/09 16:51:05;;;;;;;6.20;2.67;;;4.60;99.90;;;;;;4979172;28;20989;-68
2022/01/09 16:53:32;;;;;;;4.37;2.60;;;4.60;99.90;;;;;;4979348;28;20874;-68
2022/01/09 16:56:00;;;;;;;5.03;4.33;;;4.50;99.90;;;;;;4979423;28;20461;-67
2022/01/09 16:58:28;;;;;;;6.50;5.53;;;4.50;99.90;;;;;;4978978;28;20467;-67
2022/01/09 17:00:55;;;;;;;6.93;4.40;;;4.50;99.90;;;;;;4978919;28;20486;-67
2022/01/09 17:03:22;;;;;;;6.60;4.40;;;4.40;99.90;;;;;;4979637;28;20933;-67
2022/01/09 17:05:49;;;;;;;8.90;4.67;;;4.40;99.90;;;;;;4980817;28;20459;-68
2022/01/09 17:08:16;;;;;;;3.73;3.00;;;4.20;99.90;;;;;;4982256;28;20946;-68
2022/01/09 17:10:43;;;;;;;6.07;3.57;;;4.20;99.90;;;;;;4984454;28;20479;-67
2022/01/09 17:13:11;;;;;;;4.77;3.60;;;4.10;99.90;;;;;;4979333;28;20459;-68
2022/01/09 17:15:38;;;;;;;5.67;4.10;;;4.10;99.90;;;;;;4980357;28;20454;-69
2022/01/09 17:18:06;;;;;;;7.50;4.60;;;4.10;99.90;;;;;;4979927;28;20455;-68
2022/01/09 17:20:32;;;;;;;16.20;9.70;;;4.00;99.90;;;;;;4979675;28;20477;-68
2022/01/09 17:23:00;;;;;;;8.73;4.10;;;4.00;99.90;;;;;;4980791;28;20481;-70
2022/01/09 17:25:27;;;;;;;7.27;4.40;;;4.00;99.90;;;;;;4985169;28;20459;-68
2022/01/09 17:27:53;;;;;;;11.57;6.20;;;3.90;99.90;;;;;;4985327;28;20458;-68
2022/01/09 17:30:22;;;;;;;8.20;5.23;;;3.80;99.90;;;;;;4978941;28;20458;-68
2022/01/09 17:32:50;;;;;;;12.00;5.53;;;3.80;99.90;;;;;;4979945;28;20475;-68
2022/01/09 17:35:17;;;;;;;22.07;11.10;;;3.80;99.90;;;;;;4980735;28;20506;-68
2022/01/09 17:37:44;;;;;;;13.10;7.53;;;3.80;99.90;;;;;;4980710;28;20466;-68
2022/01/09 17:40:11;;;;;;;8.30;4.83;;;3.80;99.90;;;;;;4981834;28;20467;-68
2022/01/09 17:42:38;;;;;;;7.30;5.27;;;3.70;99.90;;;;;;4980514;28;20475;-69
2022/01/09 17:45:06;;;;;;;6.30;4.37;;;3.70;99.90;;;;;;4980723;28;20542;-69
2022/01/09 17:47:35;;;;;;;4.93;4.53;;;3.70;99.90;;;;;;4981337;28;20455;-69
2022/01/09 17:50:02;;;;;;;7.60;3.20;;;3.70;99.90;;;;;;4980530;28;20533;-68
2022/01/09 17:52:28;;;;;;;3.70;3.30;;;3.70;99.90;;;;;;4980957;28;20486;-69
2022/01/09 17:54:55;;;;;;;2.70;2.50;;;3.70;99.90;;;;;;4980541;28;21016;-69
2022/01/09 17:57:22;;;;;;;3.50;3.20;;;3.70;99.90;;;;;;4979483;28;20459;-69
2022/01/09 17:59:49;;;;;;;4.53;2.80;;;3.70;99.90;;;;;;4979137;28;20541;-69
2022/01/09 18:02:16;;;;;;;6.90;3.37;;;3.70;99.90;;;;;;4979562;28;20573;-69
2022/01/09 18:04:44;;;;;;;8.73;5.40;;;3.70;99.90;;;;;;4978691;28;20465;-69
2022/01/09 18:07:11;;;;;;;11.87;4.70;;;3.70;99.90;;;;;;4978531;28;20459;-69
2022/01/09 18:09:38;;;;;;;8.90;5.90;;;3.80;99.90;;;;;;4978476;28;20466;-69
2022/01/09 18:12:05;;;;;;;6.13;3.37;;;3.70;99.90;;;;;;4981174;28;20478;-68
2022/01/09 18:14:32;;;;;;;6.97;4.50;;;3.60;99.90;;;;;;4980712;28;20483;-68